sensor_id;sensor_type;location;lat;lon;timestamp;pressure;altitude;pressure_sealevel;temperature;humidity
73633;BME280;61927;50.080;14.418;2023-12-22T00:00:36;97116.34;;;5.59;60.35
73633;BME280;61927;50.080;14.418;2023-12-22T00:03:22;97102.97;;;5.62;61.51
73633;BME280;61927;50.080;14.418;2023-12-22T00:05:48;97123.06;;;5.51;60.98
73633;BME280;61927;50.080;14.418;2023-12-22T00:08:13;97110.63;;;5.54;61.08
73633;BME280;61927;50.080;14.418;2023-12-22T00:10:39;97111.19;;;5.68;61.25
73633;BME280;61927;50.080;14.418;2023-12-22T00:13:05;97118.84;;;5.71;60.41
73633;BME280;61927;50.080;14.418;2023-12-22T00:15:30;97111.69;;;5.51;60.97
73633;BME280;61927;50.080;14.418;2023-12-22T00:17:56;97115.63;;;5.57;61.03
73633;BME280;61927;50.080;14.418;2023-12-22T00:20:21;97121.25;;;5.52;60.92
73633;BME280;61927;50.080;14.418;2023-12-22T00:22:47;97117.19;;;5.59;60.82
73633;BME280;61927;50.080;14.418;2023-12-22T00:25:12;97103.69;;;5.53;60.45
73633;BME280;61927;50.080;14.418;2023-12-22T00:27:38;97109.16;;;5.72;61.04
73633;BME280;61927;50.080;14.418;2023-12-22T00:30:04;97110.00;;;5.72;61.54
73633;BME280;61927;50.080;14.418;2023-12-22T00:32:30;97113.84;;;5.57;62.34
73633;BME280;61927;50.080;14.418;2023-12-22T00:34:56;97107.38;;;5.50;61.47
73633;BME280;61927;50.080;14.418;2023-12-22T00:37:23;97110.97;;;5.49;62.34
73633;BME280;61927;50.080;14.418;2023-12-22T00:39:49;97114.31;;;5.51;60.95
73633;BME280;61927;50.080;14.418;2023-12-22T00:42:15;97123.91;;;5.41;61.23
73633;BME280;61927;50.080;14.418;2023-12-22T00:44:40;97122.69;;;5.34;62.17
73633;BME280;61927;50.080;14.418;2023-12-22T00:47:06;97121.97;;;5.43;61.13
73633;BME280;61927;50.080;14.418;2023-12-22T00:49:31;97119.72;;;5.38;60.91
73633;BME280;61927;50.080;14.418;2023-12-22T00:51:57;97121.84;;;5.44;60.42
73633;BME280;61927;50.080;14.418;2023-12-22T00:54:22;97128.91;;;5.44;60.16
73633;BME280;61927;50.080;14.418;2023-12-22T00:56:48;97131.44;;;5.45;60.34
73633;BME280;61927;50.080;14.418;2023-12-22T00:59:14;97140.88;;;5.37;60.27
73633;BME280;61927;50.080;14.418;2023-12-22T01:01:39;97146.97;;;5.37;60.18
73633;BME280;61927;50.080;14.418;2023-12-22T01:04:05;97154.72;;;5.28;60.53
73633;BME280;61927;50.080;14.418;2023-12-22T01:06:30;97152.09;;;5.28;60.37
73633;BME280;61927;50.080;14.418;2023-12-22T01:08:56;97148.41;;;5.41;60.51
73633;BME280;61927;50.080;14.418;2023-12-22T01:11:22;97139.44;;;5.55;60.11
73633;BME280;61927;50.080;14.418;2023-12-22T01:13:47;97153.91;;;5.49;59.40
73633;BME280;61927;50.080;14.418;2023-12-22T01:16:13;97171.69;;;5.24;60.22
73633;BME280;61927;50.080;14.418;2023-12-22T01:18:40;97161.03;;;5.14;60.73
73633;BME280;61927;50.080;14.418;2023-12-22T01:21:08;97168.56;;;5.07;61.35
73633;BME280;61927;50.080;14.418;2023-12-22T01:23:33;97163.56;;;5.15;62.11
73633;BME280;61927;50.080;14.418;2023-12-22T01:25:59;97176.94;;;5.12;61.93
73633;BME280;61927;50.080;14.418;2023-12-22T01:28:25;97181.34;;;5.12;61.86
73633;BME280;61927;50.080;14.418;2023-12-22T01:30:51;97173.47;;;5.23;62.00
73633;BME280;61927;50.080;14.418;2023-12-22T01:33:17;97175.28;;;5.23;61.18
73633;BME280;61927;50.080;14.418;2023-12-22T01:35:42;97174.31;;;5.24;61.06
73633;BME280;61927;50.080;14.418;2023-12-22T01:38:08;97181.75;;;5.30;61.07
73633;BME280;61927;50.080;14.418;2023-12-22T01:40:33;97178.13;;;5.19;61.35
73633;BME280;61927;50.080;14.418;2023-12-22T01:43:00;97187.91;;;5.06;60.94
73633;BME280;61927;50.080;14.418;2023-12-22T01:45:26;97185.50;;;5.03;62.04
73633;BME280;61927;50.080;14.418;2023-12-22T01:47:52;97173.31;;;5.02;61.77
73633;BME280;61927;50.080;14.418;2023-12-22T01:50:18;97171.06;;;5.09;62.30
73633;BME280;61927;50.080;14.418;2023-12-22T01:52:44;97177.63;;;5.03;62.02
73633;BME280;61927;50.080;14.418;2023-12-22T01:55:11;97172.31;;;4.81;62.66
73633;BME280;61927;50.080;14.418;2023-12-22T01:57:39;97182.59;;;4.84;62.07
73633;BME280;61927;50.080;14.418;2023-12-22T02:00:07;97182.09;;;4.79;62.88
73633;BME280;61927;50.080;14.418;2023-12-22T02:02:33;97183.50;;;4.72;62.60
73633;BME280;61927;50.080;14.418;2023-12-22T02:04:59;97191.78;;;4.78;63.34
73633;BME280;61927;50.080;14.418;2023-12-22T02:07:25;97193.97;;;4.61;62.93
73633;BME280;61927;50.080;14.418;2023-12-22T02:09:50;97183.47;;;4.61;63.04
73633;BME280;61927;50.080;14.418;2023-12-22T02:12:16;97184.91;;;4.65;62.56
73633;BME280;61927;50.080;14.418;2023-12-22T02:14:42;97188.16;;;4.68;62.72
73633;BME280;61927;50.080;14.418;2023-12-22T02:17:18;97172.38;;;4.68;62.66
73633;BME280;61927;50.080;14.418;2023-12-22T02:19:48;97175.81;;;4.58;62.40
73633;BME280;61927;50.080;14.418;2023-12-22T02:22:14;97166.91;;;4.71;61.92
73633;BME280;61927;50.080;14.418;2023-12-22T02:24:41;97175.94;;;4.56;62.13
73633;BME280;61927;50.080;14.418;2023-12-22T02:27:28;97171.06;;;4.63;61.75
73633;BME280;61927;50.080;14.418;2023-12-22T02:30:14;97180.69;;;4.51;62.52
73633;BME280;61927;50.080;14.418;2023-12-22T02:32:48;97174.66;;;4.38;62.36
73633;BME280;61927;50.080;14.418;2023-12-22T02:35:19;97167.78;;;4.48;61.18
73633;BME280;61927;50.080;14.418;2023-12-22T02:37:47;97177.00;;;4.53;62.04
73633;BME280;61927;50.080;14.418;2023-12-22T02:40:14;97178.59;;;4.67;61.14
73633;BME280;61927;50.080;14.418;2023-12-22T02:42:40;97173.69;;;4.63;61.99
73633;BME280;61927;50.080;14.418;2023-12-22T02:45:06;97183.25;;;4.64;61.39
73633;BME280;61927;50.080;14.418;2023-12-22T02:47:31;97156.44;;;4.47;61.42
73633;BME280;61927;50.080;14.418;2023-12-22T02:49:58;97168.94;;;4.44;61.97
73633;BME280;61927;50.080;14.418;2023-12-22T02:52:24;97173.38;;;4.43;61.99
73633;BME280;61927;50.080;14.418;2023-12-22T02:54:50;97176.44;;;4.61;60.96
73633;BME280;61927;50.080;14.418;2023-12-22T02:57:15;97183.69;;;4.58;61.49
73633;BME280;61927;50.080;14.418;2023-12-22T02:59:41;97179.91;;;4.38;61.05
73633;BME280;61927;50.080;14.418;2023-12-22T03:02:07;97180.00;;;4.36;61.77
73633;BME280;61927;50.080;14.418;2023-12-22T03:04:32;97175.31;;;4.29;60.69
73633;BME280;61927;50.080;14.418;2023-12-22T03:06:58;97186.66;;;4.29;60.57
73633;BME280;61927;50.080;14.418;2023-12-22T03:09:23;97179.84;;;4.27;60.95
73633;BME280;61927;50.080;14.418;2023-12-22T03:11:49;97177.44;;;4.24;60.84
73633;BME280;61927;50.080;14.418;2023-12-22T03:14:15;97177.56;;;4.22;61.21
73633;BME280;61927;50.080;14.418;2023-12-22T03:16:40;97170.63;;;4.21;61.39
73633;BME280;61927;50.080;14.418;2023-12-22T03:19:06;97175.47;;;4.14;61.43
73633;BME280;61927;50.080;14.418;2023-12-22T03:21:32;97177.50;;;4.11;60.53
73633;BME280;61927;50.080;14.418;2023-12-22T03:23:58;97191.13;;;4.16;60.87
73633;BME280;61927;50.080;14.418;2023-12-22T03:26:26;97209.28;;;4.19;60.24
73633;BME280;61927;50.080;14.418;2023-12-22T03:28:51;97204.53;;;4.24;61.03
73633;BME280;61927;50.080;14.418;2023-12-22T03:31:17;97212.28;;;4.26;59.91
73633;BME280;61927;50.080;14.418;2023-12-22T03:33:43;97202.84;;;4.23;59.51
73633;BME280;61927;50.080;14.418;2023-12-22T03:36:08;97216.50;;;4.28;59.10
73633;BME280;61927;50.080;14.418;2023-12-22T03:38:34;97217.66;;;4.24;58.93
73633;BME280;61927;50.080;14.418;2023-12-22T03:40:59;97209.19;;;4.44;59.89
73633;BME280;61927;50.080;14.418;2023-12-22T03:43:25;97216.59;;;4.50;58.70
73633;BME280;61927;50.080;14.418;2023-12-22T03:45:50;97203.31;;;4.41;59.29
73633;BME280;61927;50.080;14.418;2023-12-22T03:48:16;97192.03;;;4.51;58.20
73633;BME280;61927;50.080;14.418;2023-12-22T03:50:41;97195.03;;;4.58;58.25
73633;BME280;61927;50.080;14.418;2023-12-22T03:53:07;97197.28;;;4.28;58.90
73633;BME280;61927;50.080;14.418;2023-12-22T03:55:33;97214.88;;;4.38;58.22
73633;BME280;61927;50.080;14.418;2023-12-22T03:57:58;97208.22;;;4.45;58.49
73633;BME280;61927;50.080;14.418;2023-12-22T04:00:24;97192.47;;;4.45;58.83
73633;BME280;61927;50.080;14.418;2023-12-22T04:02:49;97194.09;;;4.59;57.73
73633;BME280;61927;50.080;14.418;2023-12-22T04:05:15;97184.97;;;4.52;58.54
73633;BME280;61927;50.080;14.418;2023-12-22T04:07:41;97182.03;;;4.33;58.98
73633;BME280;61927;50.080;14.418;2023-12-22T04:10:06;97172.69;;;4.29;59.39
73633;BME280;61927;50.080;14.418;2023-12-22T04:12:32;97168.69;;;4.36;59.59
73633;BME280;61927;50.080;14.418;2023-12-22T04:14:58;97168.13;;;4.43;58.91
73633;BME280;61927;50.080;14.418;2023-12-22T04:17:23;97172.34;;;4.57;58.96
73633;BME280;61927;50.080;14.418;2023-12-22T04:19:49;97184.47;;;4.47;58.92
73633;BME280;61927;50.080;14.418;2023-12-22T04:22:14;97191.56;;;4.34;59.41
73633;BME280;61927;50.080;14.418;2023-12-22T04:24:40;97182.69;;;4.24;58.76
73633;BME280;61927;50.080;14.418;2023-12-22T04:27:06;97181.53;;;4.28;59.48
73633;BME280;61927;50.080;14.418;2023-12-22T04:29:31;97166.50;;;4.30;60.07
73633;BME280;61927;50.080;14.418;2023-12-22T04:31:57;97158.41;;;4.33;60.07
73633;BME280;61927;50.080;14.418;2023-12-22T04:34:23;97171.34;;;4.47;60.10
73633;BME280;61927;50.080;14.418;2023-12-22T04:36:49;97162.19;;;4.52;60.02
73633;BME280;61927;50.080;14.418;2023-12-22T04:39:14;97163.13;;;4.51;60.65
73633;BME280;61927;50.080;14.418;2023-12-22T04:41:40;97163.84;;;4.53;59.64
73633;BME280;61927;50.080;14.418;2023-12-22T04:44:05;97162.34;;;4.62;60.24
73633;BME280;61927;50.080;14.418;2023-12-22T04:46:31;97165.16;;;4.48;60.28
73633;BME280;61927;50.080;14.418;2023-12-22T04:48:56;97179.69;;;4.41;60.75
73633;BME280;61927;50.080;14.418;2023-12-22T04:51:23;97160.56;;;4.39;60.73
73633;BME280;61927;50.080;14.418;2023-12-22T04:53:48;97161.47;;;4.50;59.85
73633;BME280;61927;50.080;14.418;2023-12-22T04:56:14;97154.97;;;4.43;60.51
73633;BME280;61927;50.080;14.418;2023-12-22T04:58:39;97155.22;;;4.40;61.10
73633;BME280;61927;50.080;14.418;2023-12-22T05:01:05;97163.09;;;4.40;61.58
73633;BME280;61927;50.080;14.418;2023-12-22T05:03:30;97185.03;;;4.39;61.39
73633;BME280;61927;50.080;14.418;2023-12-22T05:05:56;97189.91;;;4.33;61.37
73633;BME280;61927;50.080;14.418;2023-12-22T05:08:22;97193.41;;;4.44;60.77
73633;BME280;61927;50.080;14.418;2023-12-22T05:10:47;97197.63;;;4.47;61.87
73633;BME280;61927;50.080;14.418;2023-12-22T05:13:13;97214.41;;;4.68;61.70
73633;BME280;61927;50.080;14.418;2023-12-22T05:15:39;97215.44;;;4.31;63.56
73633;BME280;61927;50.080;14.418;2023-12-22T05:18:04;97197.28;;;4.28;65.24
73633;BME280;61927;50.080;14.418;2023-12-22T05:20:30;97215.31;;;4.32;66.81
73633;BME280;61927;50.080;14.418;2023-12-22T05:22:55;97223.00;;;4.22;67.35
73633;BME280;61927;50.080;14.418;2023-12-22T05:25:21;97209.72;;;4.13;68.20
73633;BME280;61927;50.080;14.418;2023-12-22T05:27:47;97212.56;;;4.10;70.38
73633;BME280;61927;50.080;14.418;2023-12-22T05:30:13;97207.78;;;3.91;72.26
73633;BME280;61927;50.080;14.418;2023-12-22T05:32:38;97217.47;;;3.78;74.25
73633;BME280;61927;50.080;14.418;2023-12-22T05:35:05;97226.91;;;3.55;76.00
73633;BME280;61927;50.080;14.418;2023-12-22T05:37:30;97230.50;;;3.54;76.87
73633;BME280;61927;50.080;14.418;2023-12-22T05:39:56;97223.16;;;3.59;77.27
73633;BME280;61927;50.080;14.418;2023-12-22T05:42:22;97221.47;;;3.45;78.39
73633;BME280;61927;50.080;14.418;2023-12-22T05:44:47;97226.28;;;3.51;78.78
73633;BME280;61927;50.080;14.418;2023-12-22T05:47:18;97226.06;;;3.67;78.43
73633;BME280;61927;50.080;14.418;2023-12-22T05:49:44;97238.88;;;3.72;78.21
73633;BME280;61927;50.080;14.418;2023-12-22T05:52:09;97235.63;;;3.68;78.93
73633;BME280;61927;50.080;14.418;2023-12-22T05:54:35;97237.81;;;3.74;78.01
73633;BME280;61927;50.080;14.418;2023-12-22T05:57:01;97244.84;;;3.61;78.15
73633;BME280;61927;50.080;14.418;2023-12-22T05:59:27;97246.44;;;3.64;75.95
73633;BME280;61927;50.080;14.418;2023-12-22T06:01:57;97260.28;;;3.66;75.88
73633;BME280;61927;50.080;14.418;2023-12-22T06:04:24;97249.16;;;3.75;73.39
73633;BME280;61927;50.080;14.418;2023-12-22T06:06:50;97236.00;;;3.87;71.72
73633;BME280;61927;50.080;14.418;2023-12-22T06:09:16;97252.59;;;3.88;71.21
73633;BME280;61927;50.080;14.418;2023-12-22T06:11:44;97245.53;;;4.01;70.23
73633;BME280;61927;50.080;14.418;2023-12-22T06:14:09;97236.09;;;3.99;69.45
73633;BME280;61927;50.080;14.418;2023-12-22T06:16:35;97241.56;;;3.96;69.81
73633;BME280;61927;50.080;14.418;2023-12-22T06:19:01;97255.44;;;3.85;69.78
73633;BME280;61927;50.080;14.418;2023-12-22T06:21:26;97249.88;;;3.89;69.63
73633;BME280;61927;50.080;14.418;2023-12-22T06:23:52;97274.94;;;3.94;68.94
73633;BME280;61927;50.080;14.418;2023-12-22T06:26:17;97272.22;;;3.82;68.66
73633;BME280;61927;50.080;14.418;2023-12-22T06:28:43;97261.09;;;3.92;69.03
73633;BME280;61927;50.080;14.418;2023-12-22T06:31:16;97259.63;;;3.87;70.40
73633;BME280;61927;50.080;14.418;2023-12-22T06:33:46;97279.78;;;3.74;71.48
73633;BME280;61927;50.080;14.418;2023-12-22T06:36:22;97270.34;;;3.72;73.63
73633;BME280;61927;50.080;14.418;2023-12-22T06:38:52;97286.91;;;3.72;74.28
73633;BME280;61927;50.080;14.418;2023-12-22T06:41:25;97273.47;;;3.39;76.34
73633;BME280;61927;50.080;14.418;2023-12-22T06:43:51;97274.22;;;2.88;80.08
73633;BME280;61927;50.080;14.418;2023-12-22T06:46:21;97261.44;;;2.84;82.00
73633;BME280;61927;50.080;14.418;2023-12-22T06:48:54;97250.69;;;2.62;83.36
73633;BME280;61927;50.080;14.418;2023-12-22T06:51:21;97270.72;;;2.75;83.03
73633;BME280;61927;50.080;14.418;2023-12-22T06:53:48;97285.41;;;2.51;84.41
73633;BME280;61927;50.080;14.418;2023-12-22T06:56:24;97294.25;;;2.63;84.83
73633;BME280;61927;50.080;14.418;2023-12-22T06:58:51;97294.91;;;2.66;84.03
73633;BME280;61927;50.080;14.418;2023-12-22T07:01:33;97296.91;;;2.75;83.49
73633;BME280;61927;50.080;14.418;2023-12-22T07:03:59;97294.84;;;2.80;81.99
73633;BME280;61927;50.080;14.418;2023-12-22T07:06:27;97290.88;;;2.87;81.42
73633;BME280;61927;50.080;14.418;2023-12-22T07:11:24;97306.25;;;3.06;78.51
73633;BME280;61927;50.080;14.418;2023-12-22T07:13:50;97288.50;;;2.97;78.64
73633;BME280;61927;50.080;14.418;2023-12-22T07:16:15;97286.84;;;3.09;77.93
73633;BME280;61927;50.080;14.418;2023-12-22T07:18:41;97293.91;;;3.34;78.51
73633;BME280;61927;50.080;14.418;2023-12-22T07:21:07;97297.06;;;3.39;76.34
73633;BME280;61927;50.080;14.418;2023-12-22T07:23:32;97303.78;;;3.43;76.36
73633;BME280;61927;50.080;14.418;2023-12-22T07:25:58;97302.94;;;3.42;76.30
73633;BME280;61927;50.080;14.418;2023-12-22T07:28:24;97292.97;;;3.35;76.28
73633;BME280;61927;50.080;14.418;2023-12-22T07:30:50;97302.66;;;3.47;75.21
73633;BME280;61927;50.080;14.418;2023-12-22T07:33:15;97311.97;;;3.51;74.41
73633;BME280;61927;50.080;14.418;2023-12-22T07:35:41;97310.00;;;3.54;73.74
73633;BME280;61927;50.080;14.418;2023-12-22T07:38:07;97306.13;;;3.60;73.26
73633;BME280;61927;50.080;14.418;2023-12-22T07:40:34;97308.94;;;3.57;72.82
73633;BME280;61927;50.080;14.418;2023-12-22T07:42:59;97301.72;;;3.61;72.49
73633;BME280;61927;50.080;14.418;2023-12-22T07:45:25;97313.25;;;3.83;71.37
73633;BME280;61927;50.080;14.418;2023-12-22T07:47:51;97309.38;;;3.64;70.71
73633;BME280;61927;50.080;14.418;2023-12-22T07:50:17;97303.81;;;3.68;70.85
73633;BME280;61927;50.080;14.418;2023-12-22T07:52:43;97299.50;;;3.80;68.56
73633;BME280;61927;50.080;14.418;2023-12-22T07:55:09;97288.78;;;4.08;68.72
73633;BME280;61927;50.080;14.418;2023-12-22T07:57:36;97294.84;;;4.09;67.61
73633;BME280;61927;50.080;14.418;2023-12-22T08:00:03;97290.22;;;4.25;68.22
73633;BME280;61927;50.080;14.418;2023-12-22T08:02:30;97307.78;;;4.12;67.41
73633;BME280;61927;50.080;14.418;2023-12-22T08:04:55;97314.91;;;4.10;67.51
73633;BME280;61927;50.080;14.418;2023-12-22T08:07:21;97293.84;;;4.35;68.45
73633;BME280;61927;50.080;14.418;2023-12-22T08:09:46;97298.59;;;4.30;66.61
73633;BME280;61927;50.080;14.418;2023-12-22T08:12:12;97293.41;;;4.41;66.71
73633;BME280;61927;50.080;14.418;2023-12-22T08:14:38;97306.00;;;4.49;67.06
73633;BME280;61927;50.080;14.418;2023-12-22T08:17:03;97307.59;;;4.39;66.46
73633;BME280;61927;50.080;14.418;2023-12-22T08:19:29;97313.78;;;4.50;66.69
73633;BME280;61927;50.080;14.418;2023-12-22T08:21:55;97325.84;;;4.53;66.58
73633;BME280;61927;50.080;14.418;2023-12-22T08:24:21;97314.06;;;4.59;67.25
73633;BME280;61927;50.080;14.418;2023-12-22T08:26:47;97308.16;;;4.68;65.84
73633;BME280;61927;50.080;14.418;2023-12-22T08:29:13;97321.41;;;4.66;66.70
73633;BME280;61927;50.080;14.418;2023-12-22T08:31:40;97355.13;;;4.60;66.93
73633;BME280;61927;50.080;14.418;2023-12-22T08:34:06;97361.63;;;4.17;73.39
73633;BME280;61927;50.080;14.418;2023-12-22T08:36:32;97401.50;;;3.84;75.73
73633;BME280;61927;50.080;14.418;2023-12-22T08:38:57;97397.84;;;3.35;78.13
73633;BME280;61927;50.080;14.418;2023-12-22T08:41:24;97398.81;;;2.92;81.21
73633;BME280;61927;50.080;14.418;2023-12-22T08:43:49;97369.56;;;2.86;81.80
73633;BME280;61927;50.080;14.418;2023-12-22T08:46:15;97372.22;;;2.72;82.98
73633;BME280;61927;50.080;14.418;2023-12-22T08:48:42;97379.72;;;2.64;83.21
73633;BME280;61927;50.080;14.418;2023-12-22T08:51:07;97380.38;;;2.67;84.28
73633;BME280;61927;50.080;14.418;2023-12-22T08:53:33;97383.56;;;2.58;85.78
73633;BME280;61927;50.080;14.418;2023-12-22T08:56:03;97393.13;;;2.45;86.35
73633;BME280;61927;50.080;14.418;2023-12-22T08:58:29;97404.16;;;2.36;87.19
73633;BME280;61927;50.080;14.418;2023-12-22T09:00:55;97419.28;;;2.31;86.96
73633;BME280;61927;50.080;14.418;2023-12-22T09:03:20;97421.25;;;2.27;87.65
73633;BME280;61927;50.080;14.418;2023-12-22T09:05:46;97413.88;;;2.34;87.58
73633;BME280;61927;50.080;14.418;2023-12-22T09:08:12;97414.44;;;2.53;85.33
73633;BME280;61927;50.080;14.418;2023-12-22T09:10:38;97409.28;;;2.37;87.19
73633;BME280;61927;50.080;14.418;2023-12-22T09:13:04;97418.25;;;2.33;86.64
73633;BME280;61927;50.080;14.418;2023-12-22T09:15:30;97425.00;;;2.37;86.60
73633;BME280;61927;50.080;14.418;2023-12-22T09:17:56;97414.63;;;2.36;86.81
73633;BME280;61927;50.080;14.418;2023-12-22T09:20:22;97399.38;;;2.56;87.07
73633;BME280;61927;50.080;14.418;2023-12-22T09:22:47;97389.34;;;2.63;85.76
73633;BME280;61927;50.080;14.418;2023-12-22T09:25:13;97398.41;;;2.72;86.03
73633;BME280;61927;50.080;14.418;2023-12-22T09:27:39;97397.56;;;2.71;85.44
73633;BME280;61927;50.080;14.418;2023-12-22T09:30:05;97403.22;;;2.92;85.16
73633;BME280;61927;50.080;14.418;2023-12-22T09:32:34;97401.00;;;2.86;85.12
73633;BME280;61927;50.080;14.418;2023-12-22T09:35:00;97412.06;;;3.04;82.78
73633;BME280;61927;50.080;14.418;2023-12-22T09:37:26;97400.38;;;3.09;81.78
73633;BME280;61927;50.080;14.418;2023-12-22T09:39:52;97389.47;;;3.42;79.10
73633;BME280;61927;50.080;14.418;2023-12-22T09:42:23;97384.69;;;3.74;79.34
73633;BME280;61927;50.080;14.418;2023-12-22T09:44:53;97385.94;;;3.69;75.84
73633;BME280;61927;50.080;14.418;2023-12-22T09:47:19;97380.91;;;3.66;75.86
73633;BME280;61927;50.080;14.418;2023-12-22T09:49:45;97386.06;;;3.93;72.32
73633;BME280;61927;50.080;14.418;2023-12-22T09:52:12;97396.47;;;4.07;70.00
73633;BME280;61927;50.080;14.418;2023-12-22T09:54:40;97404.44;;;4.18;69.39
73633;BME280;61927;50.080;14.418;2023-12-22T09:57:06;97406.34;;;4.29;69.19
73633;BME280;61927;50.080;14.418;2023-12-22T09:59:34;97433.44;;;4.16;70.18
73633;BME280;61927;50.080;14.418;2023-12-22T10:02:02;97402.88;;;4.15;72.37
73633;BME280;61927;50.080;14.418;2023-12-22T10:04:28;97428.56;;;3.85;73.28
73633;BME280;61927;50.080;14.418;2023-12-22T10:06:58;97418.50;;;3.39;77.62
73633;BME280;61927;50.080;14.418;2023-12-22T10:09:27;97405.16;;;3.30;78.63
73633;BME280;61927;50.080;14.418;2023-12-22T10:11:52;97425.53;;;3.12;78.63
73633;BME280;61927;50.080;14.418;2023-12-22T10:14:22;97377.47;;;2.99;76.54
73633;BME280;61927;50.080;14.418;2023-12-22T10:16:49;97408.81;;;3.00;74.64
73633;BME280;61927;50.080;14.418;2023-12-22T10:19:15;97420.78;;;3.04;72.03
73633;BME280;61927;50.080;14.418;2023-12-22T10:21:41;97427.06;;;3.02;72.59
73633;BME280;61927;50.080;14.418;2023-12-22T10:24:07;97433.06;;;2.89;73.21
73633;BME280;61927;50.080;14.418;2023-12-22T10:26:33;97555.91;;;2.80;76.59
73633;BME280;61927;50.080;14.418;2023-12-22T10:28:58;97470.53;;;2.49;80.96
73633;BME280;61927;50.080;14.418;2023-12-22T10:31:24;97480.22;;;2.33;82.82
73633;BME280;61927;50.080;14.418;2023-12-22T10:33:51;97510.19;;;2.13;84.20
73633;BME280;61927;50.080;14.418;2023-12-22T10:36:16;97555.25;;;2.18;85.02
73633;BME280;61927;50.080;14.418;2023-12-22T10:38:42;97497.41;;;2.22;85.62
73633;BME280;61927;50.080;14.418;2023-12-22T10:41:08;97505.91;;;2.12;86.25
73633;BME280;61927;50.080;14.418;2023-12-22T10:43:38;97477.13;;;2.12;84.17
73633;BME280;61927;50.080;14.418;2023-12-22T10:46:04;97472.81;;;2.11;82.03
73633;BME280;61927;50.080;14.418;2023-12-22T10:48:31;97496.38;;;2.11;84.23
73633;BME280;61927;50.080;14.418;2023-12-22T10:50:56;97470.22;;;2.11;83.12
73633;BME280;61927;50.080;14.418;2023-12-22T10:53:22;97468.31;;;1.99;83.14
73633;BME280;61927;50.080;14.418;2023-12-22T10:55:49;97485.34;;;2.06;84.06
73633;BME280;61927;50.080;14.418;2023-12-22T10:58:16;97495.88;;;2.04;85.10
73633;BME280;61927;50.080;14.418;2023-12-22T11:00:44;97510.91;;;2.01;85.32
73633;BME280;61927;50.080;14.418;2023-12-22T11:03:12;97516.09;;;1.56;88.63
73633;BME280;61927;50.080;14.418;2023-12-22T11:05:42;97507.38;;;1.72;91.21
73633;BME280;61927;50.080;14.418;2023-12-22T11:08:11;97502.66;;;1.63;90.83
73633;BME280;61927;50.080;14.418;2023-12-22T11:10:41;97502.22;;;1.70;89.86
73633;BME280;61927;50.080;14.418;2023-12-22T11:13:09;97500.34;;;1.88;89.29
73633;BME280;61927;50.080;14.418;2023-12-22T11:15:35;97511.22;;;1.80;88.71
73633;BME280;61927;50.080;14.418;2023-12-22T11:18:01;97496.56;;;2.08;89.57
73633;BME280;61927;50.080;14.418;2023-12-22T11:20:28;97497.00;;;2.00;88.34
73633;BME280;61927;50.080;14.418;2023-12-22T11:22:59;97496.63;;;2.06;87.95
73633;BME280;61927;50.080;14.418;2023-12-22T11:25:26;97487.47;;;1.99;87.81
73633;BME280;61927;50.080;14.418;2023-12-22T11:27:52;97475.06;;;2.17;87.61
73633;BME280;61927;50.080;14.418;2023-12-22T11:30:20;97504.97;;;2.13;87.79
73633;BME280;61927;50.080;14.418;2023-12-22T11:32:49;97483.59;;;2.20;87.34
73633;BME280;61927;50.080;14.418;2023-12-22T11:35:14;97527.03;;;2.23;87.46
73633;BME280;61927;50.080;14.418;2023-12-22T11:37:43;97484.16;;;2.25;87.12
73633;BME280;61927;50.080;14.418;2023-12-22T11:40:09;97481.47;;;2.41;86.64
73633;BME280;61927;50.080;14.418;2023-12-22T11:42:39;97484.53;;;2.48;87.25
73633;BME280;61927;50.080;14.418;2023-12-22T11:45:11;97503.63;;;2.50;85.97
73633;BME280;61927;50.080;14.418;2023-12-22T11:47:42;97494.81;;;2.22;87.25
73633;BME280;61927;50.080;14.418;2023-12-22T11:50:11;97486.88;;;2.38;86.56
73633;BME280;61927;50.080;14.418;2023-12-22T11:52:38;97481.47;;;2.55;86.50
73633;BME280;61927;50.080;14.418;2023-12-22T11:55:04;97485.38;;;2.48;85.54
73633;BME280;61927;50.080;14.418;2023-12-22T11:57:38;97474.44;;;2.56;85.64
73633;BME280;61927;50.080;14.418;2023-12-22T12:00:08;97454.91;;;2.62;85.51
73633;BME280;61927;50.080;14.418;2023-12-22T12:02:37;97453.38;;;2.86;85.68
73633;BME280;61927;50.080;14.418;2023-12-22T12:05:03;97438.75;;;2.96;84.37
73633;BME280;61927;50.080;14.418;2023-12-22T12:07:43;97434.91;;;3.02;84.71
73633;BME280;61927;50.080;14.418;2023-12-22T12:10:13;97428.09;;;2.99;83.08
73633;BME280;61927;50.080;14.418;2023-12-22T12:13:09;97405.13;;;3.17;83.11
73633;BME280;61927;50.080;14.418;2023-12-22T12:15:35;97403.63;;;3.40;82.55
73633;BME280;61927;50.080;14.418;2023-12-22T12:18:02;97400.41;;;3.62;81.20
73633;BME280;61927;50.080;14.418;2023-12-22T12:20:28;97391.72;;;3.61;77.29
73633;BME280;61927;50.080;14.418;2023-12-22T12:22:54;97387.13;;;3.77;76.91
73633;BME280;61927;50.080;14.418;2023-12-22T12:25:23;97387.34;;;3.87;77.47
73633;BME280;61927;50.080;14.418;2023-12-22T12:28:05;97386.59;;;3.85;74.70
73633;BME280;61927;50.080;14.418;2023-12-22T12:30:32;97375.91;;;4.01;75.46
73633;BME280;61927;50.080;14.418;2023-12-22T12:32:59;97376.22;;;4.09;73.45
73633;BME280;61927;50.080;14.418;2023-12-22T12:35:32;97376.22;;;4.09;71.73
73633;BME280;61927;50.080;14.418;2023-12-22T12:37:59;97375.69;;;4.16;71.15
73633;BME280;61927;50.080;14.418;2023-12-22T12:40:27;97380.19;;;4.27;71.08
73633;BME280;61927;50.080;14.418;2023-12-22T12:42:58;97366.84;;;4.30;70.91
73633;BME280;61927;50.080;14.418;2023-12-22T12:45:25;97374.38;;;4.47;71.74
73633;BME280;61927;50.080;14.418;2023-12-22T12:50:23;97362.94;;;4.48;70.90
73633;BME280;61927;50.080;14.418;2023-12-22T12:52:49;97365.28;;;4.28;72.45
73633;BME280;61927;50.080;14.418;2023-12-22T12:55:18;97368.19;;;4.48;71.26
73633;BME280;61927;50.080;14.418;2023-12-22T12:57:44;97357.38;;;4.53;70.71
73633;BME280;61927;50.080;14.418;2023-12-22T13:00:10;97361.13;;;4.62;70.86
73633;BME280;61927;50.080;14.418;2023-12-22T13:02:36;97364.25;;;4.67;70.97